Terminal Aerodrome Forecast
Issued by NWS

Home | Current Version | Previous Version | Text Only | Print | Product List | Glossary Off
Versions: 1 2 3 4 5 6 7 8 9 10 11 12 13 14 15 16

401
FTUS43 KBIS 071846 AAA
TAFDIK
TAF AMD
KDIK 071846Z 0719/0818 32034G46KT P6SM OVC035
     FM080100 32027G37KT P6SM SCT025
     FM080700 32019G28KT P6SM SCT050=

USA.gov is the U.S. government's official web portal to all federal, state and local government web resources and services.